Elkhart, IN (46516)

12:28 PM EDT on March 29, 2015 (GMT -0400)
Elkhart County West | | Change Station
CLOSE
Current Station
Personal Weather Station
Location: Elkhart, IN
Elevation: 758 ft
Nearby Weather Stations

Elev 758 ft 41.71 °N, 86.04 °W | Updated 34 seconds ago

Clear
Clear
39.6 °F
Feels Like 32 °F
N
11.8
Wind Variable Wind from SSW
Gusts 29.5 mph

Today
High -- | Low -- °F
--% Chance of Precip.
Yesterday
High -- | Low -- °F
Precip. -- in
7:32 AM 8:05 PM
Waxing Gibbous, 72% visible
Pressure 30.12 in
Visibility 10.0 miles
Clouds Clear
Windchill 32 °F
Dew Point 18 °F
Humidity 41%
Rainfall 0.00 in
Snow Depth Not available.
UV 6 out of 12
Pollen 4.00 out of 12
Air Quality Not available.
Flu Activity Not available.
METAR KEKM 291552Z 18015G28KT 10SM SKC 04/M11 A3012 RMK AO2

More Conditions Fewer Conditions

Pressure 30.12 in
Visibility 10.0 miles
Clouds Clear
Windchill 32 °F
Dew Point 18 °F
Humidity 41%
Rainfall 0.00 in
Snow Depth Not available.
UV 6 out of 12
Pollen 4.00 out of 12
Air Quality Not available.
Flu Activity Not available.
METAR KEKM 291552Z 18015G28KT 10SM SKC 04/M11 A3012 RMK AO2

More Conditions Fewer Conditions

10-Day Weather Forecast

Almanac

Astronomy

Mar. 29, 2015 Rise Set
Actual Time
Civil Twilight
Nautical Twilight
Astronomical Twilight
Moon
Length of Visible Light
Length of Day
Tomorrow will be .
, % of the Moon is Illuminated

Today's Extremes

State Highs State Lows

Community

WunderPhotos

Upload Photos

1,809,284 photos uploaded!

WunderBlogs® & News

Nearby

Air Quality

  Air Quality AQ Index Pollutant
Not available.

Snow Depth

Station Depth Elevation

Earthquake Activity

City Distance Mag. Time & Date
Minimum magnitude displayed is 2.5.

Coastal Water Temperatures

Place Temperature

Stations

Nearby Weather Stations

Station Location Temp. Windchill Dew Point Humidity Wind Precip. Elev Updated Type